sensor_id;sensor_type;location;lat;lon;timestamp;temperature;humidity
4578;DHT22;2301;47.354;8.528;2023-08-07T00:00:53;18.00;76.60
4578;DHT22;2301;47.354;8.528;2023-08-07T00:03:20;18.00;75.80
4578;DHT22;2301;47.354;8.528;2023-08-07T00:05:47;18.10;76.30
4578;DHT22;2301;47.354;8.528;2023-08-07T00:08:14;18.20;77.50
4578;DHT22;2301;47.354;8.528;2023-08-07T00:10:42;18.10;75.70
4578;DHT22;2301;47.354;8.528;2023-08-07T00:13:13;18.20;76.40
4578;DHT22;2301;47.354;8.528;2023-08-07T00:15:40;18.20;75.90
4578;DHT22;2301;47.354;8.528;2023-08-07T00:18:07;18.10;74.40
4578;DHT22;2301;47.354;8.528;2023-08-07T00:20:34;18.20;75.20
4578;DHT22;2301;47.354;8.528;2023-08-07T00:23:01;18.20;75.70
4578;DHT22;2301;47.354;8.528;2023-08-07T00:25:28;18.10;73.30
4578;DHT22;2301;47.354;8.528;2023-08-07T00:27:55;18.20;74.40
4578;DHT22;2301;47.354;8.528;2023-08-07T00:30:23;18.10;74.70
4578;DHT22;2301;47.354;8.528;2023-08-07T00:32:50;18.10;75.90
4578;DHT22;2301;47.354;8.528;2023-08-07T00:35:17;18.10;75.00
4578;DHT22;2301;47.354;8.528;2023-08-07T00:37:44;18.20;75.10
4578;DHT22;2301;47.354;8.528;2023-08-07T00:40:11;18.10;74.80
4578;DHT22;2301;47.354;8.528;2023-08-07T00:42:38;18.10;76.00
4578;DHT22;2301;47.354;8.528;2023-08-07T00:45:06;18.10;74.30
4578;DHT22;2301;47.354;8.528;2023-08-07T00:47:34;18.10;75.00
4578;DHT22;2301;47.354;8.528;2023-08-07T00:50:04;18.00;74.80
4578;DHT22;2301;47.354;8.528;2023-08-07T00:52:32;18.10;75.70
4578;DHT22;2301;47.354;8.528;2023-08-07T00:54:59;18.10;75.70
4578;DHT22;2301;47.354;8.528;2023-08-07T00:57:25;18.10;74.90
4578;DHT22;2301;47.354;8.528;2023-08-07T00:59:53;18.10;75.00
4578;DHT22;2301;47.354;8.528;2023-08-07T01:02:20;18.00;75.00
4578;DHT22;2301;47.354;8.528;2023-08-07T01:04:49;18.10;75.20
4578;DHT22;2301;47.354;8.528;2023-08-07T01:07:16;18.00;72.70
4578;DHT22;2301;47.354;8.528;2023-08-07T01:09:43;18.10;74.90
4578;DHT22;2301;47.354;8.528;2023-08-07T01:12:16;18.10;75.10
4578;DHT22;2301;47.354;8.528;2023-08-07T01:14:51;18.10;75.50
4578;DHT22;2301;47.354;8.528;2023-08-07T01:17:21;18.10;74.40
4578;DHT22;2301;47.354;8.528;2023-08-07T01:19:52;18.10;74.60
4578;DHT22;2301;47.354;8.528;2023-08-07T01:22:20;18.10;74.10
4578;DHT22;2301;47.354;8.528;2023-08-07T01:24:49;18.10;74.40
4578;DHT22;2301;47.354;8.528;2023-08-07T01:27:24;18.00;72.10
4578;DHT22;2301;47.354;8.528;2023-08-07T01:29:57;17.90;72.00
4578;DHT22;2301;47.354;8.528;2023-08-07T01:32:29;17.80;73.30
4578;DHT22;2301;47.354;8.528;2023-08-07T01:35:02;17.80;74.50
4578;DHT22;2301;47.354;8.528;2023-08-07T01:37:33;17.80;74.70
4578;DHT22;2301;47.354;8.528;2023-08-07T01:40:02;17.90;75.70
4578;DHT22;2301;47.354;8.528;2023-08-07T01:42:29;17.90;75.90
4578;DHT22;2301;47.354;8.528;2023-08-07T01:44:57;18.00;75.30
4578;DHT22;2301;47.354;8.528;2023-08-07T01:47:24;18.00;75.00
4578;DHT22;2301;47.354;8.528;2023-08-07T01:49:51;18.00;75.10
4578;DHT22;2301;47.354;8.528;2023-08-07T01:52:19;18.00;73.90
4578;DHT22;2301;47.354;8.528;2023-08-07T01:54:48;18.00;74.90
4578;DHT22;2301;47.354;8.528;2023-08-07T01:57:15;18.00;73.70
4578;DHT22;2301;47.354;8.528;2023-08-07T01:59:41;17.70;73.00
4578;DHT22;2301;47.354;8.528;2023-08-07T02:02:10;17.70;74.40
4578;DHT22;2301;47.354;8.528;2023-08-07T02:04:37;17.80;76.10
4578;DHT22;2301;47.354;8.528;2023-08-07T02:07:04;17.80;76.00
4578;DHT22;2301;47.354;8.528;2023-08-07T02:09:31;17.80;75.00
4578;DHT22;2301;47.354;8.528;2023-08-07T02:11:59;17.80;75.20
4578;DHT22;2301;47.354;8.528;2023-08-07T02:14:27;17.80;75.30
4578;DHT22;2301;47.354;8.528;2023-08-07T02:16:54;17.80;75.70
4578;DHT22;2301;47.354;8.528;2023-08-07T02:19:20;17.80;76.20
4578;DHT22;2301;47.354;8.528;2023-08-07T02:21:47;17.80;76.00
4578;DHT22;2301;47.354;8.528;2023-08-07T02:24:14;17.80;76.30
4578;DHT22;2301;47.354;8.528;2023-08-07T02:26:41;17.80;75.80
4578;DHT22;2301;47.354;8.528;2023-08-07T02:29:10;17.90;75.80
4578;DHT22;2301;47.354;8.528;2023-08-07T02:31:37;17.90;76.40
4578;DHT22;2301;47.354;8.528;2023-08-07T02:34:03;17.90;73.70
4578;DHT22;2301;47.354;8.528;2023-08-07T02:36:30;17.80;74.20
4578;DHT22;2301;47.354;8.528;2023-08-07T02:38:57;17.80;75.50
4578;DHT22;2301;47.354;8.528;2023-08-07T02:41:24;17.70;74.40
4578;DHT22;2301;47.354;8.528;2023-08-07T02:43:51;17.70;75.20
4578;DHT22;2301;47.354;8.528;2023-08-07T02:46:19;17.60;73.80
4578;DHT22;2301;47.354;8.528;2023-08-07T02:48:46;17.50;74.00
4578;DHT22;2301;47.354;8.528;2023-08-07T02:51:13;17.60;75.20
4578;DHT22;2301;47.354;8.528;2023-08-07T02:53:40;17.60;75.30
4578;DHT22;2301;47.354;8.528;2023-08-07T02:56:07;17.50;75.70
4578;DHT22;2301;47.354;8.528;2023-08-07T02:58:34;17.50;73.50
4578;DHT22;2301;47.354;8.528;2023-08-07T03:01:03;17.60;75.30
4578;DHT22;2301;47.354;8.528;2023-08-07T03:03:33;17.60;75.70
4578;DHT22;2301;47.354;8.528;2023-08-07T03:06:00;17.60;75.00
4578;DHT22;2301;47.354;8.528;2023-08-07T03:08:26;17.50;74.50
4578;DHT22;2301;47.354;8.528;2023-08-07T03:10:55;17.60;74.60
4578;DHT22;2301;47.354;8.528;2023-08-07T03:13:22;17.60;74.70
4578;DHT22;2301;47.354;8.528;2023-08-07T03:15:49;17.60;75.50
4578;DHT22;2301;47.354;8.528;2023-08-07T03:18:16;17.70;75.50
4578;DHT22;2301;47.354;8.528;2023-08-07T03:20:45;17.70;75.60
4578;DHT22;2301;47.354;8.528;2023-08-07T03:23:12;17.70;75.20
4578;DHT22;2301;47.354;8.528;2023-08-07T03:25:39;17.70;75.60
4578;DHT22;2301;47.354;8.528;2023-08-07T03:28:06;17.70;75.00
4578;DHT22;2301;47.354;8.528;2023-08-07T03:30:33;17.60;73.40
4578;DHT22;2301;47.354;8.528;2023-08-07T03:33:00;17.60;75.00
4578;DHT22;2301;47.354;8.528;2023-08-07T03:35:27;17.60;73.60
4578;DHT22;2301;47.354;8.528;2023-08-07T03:37:55;17.50;74.40
4578;DHT22;2301;47.354;8.528;2023-08-07T03:40:22;17.50;74.30
4578;DHT22;2301;47.354;8.528;2023-08-07T03:42:49;17.40;73.80
4578;DHT22;2301;47.354;8.528;2023-08-07T03:45:16;17.30;74.30
4578;DHT22;2301;47.354;8.528;2023-08-07T03:47:43;17.20;73.30
4578;DHT22;2301;47.354;8.528;2023-08-07T03:50:10;17.20;74.50
4578;DHT22;2301;47.354;8.528;2023-08-07T03:52:37;17.20;75.90
4578;DHT22;2301;47.354;8.528;2023-08-07T03:55:05;17.20;74.90
4578;DHT22;2301;47.354;8.528;2023-08-07T03:57:32;17.30;75.00
4578;DHT22;2301;47.354;8.528;2023-08-07T03:59:59;17.30;74.60
4578;DHT22;2301;47.354;8.528;2023-08-07T04:02:26;17.20;74.00
4578;DHT22;2301;47.354;8.528;2023-08-07T04:04:54;17.20;74.60
4578;DHT22;2301;47.354;8.528;2023-08-07T04:07:21;17.30;76.00
4578;DHT22;2301;47.354;8.528;2023-08-07T04:09:48;17.20;74.30
4578;DHT22;2301;47.354;8.528;2023-08-07T04:12:17;17.20;74.90
4578;DHT22;2301;47.354;8.528;2023-08-07T04:14:44;17.30;76.90
4578;DHT22;2301;47.354;8.528;2023-08-07T04:17:10;17.20;74.40
4578;DHT22;2301;47.354;8.528;2023-08-07T04:19:38;17.20;76.10
4578;DHT22;2301;47.354;8.528;2023-08-07T04:22:05;17.20;73.70
4578;DHT22;2301;47.354;8.528;2023-08-07T04:24:32;17.20;75.30
4578;DHT22;2301;47.354;8.528;2023-08-07T04:26:59;17.30;76.50
4578;DHT22;2301;47.354;8.528;2023-08-07T04:29:27;17.30;76.70
4578;DHT22;2301;47.354;8.528;2023-08-07T04:31:54;17.40;76.80
4578;DHT22;2301;47.354;8.528;2023-08-07T04:34:21;17.30;74.90
4578;DHT22;2301;47.354;8.528;2023-08-07T04:36:48;17.30;73.90
4578;DHT22;2301;47.354;8.528;2023-08-07T04:39:17;17.40;75.40
4578;DHT22;2301;47.354;8.528;2023-08-07T04:41:44;17.40;76.00
4578;DHT22;2301;47.354;8.528;2023-08-07T04:44:11;17.40;74.10
4578;DHT22;2301;47.354;8.528;2023-08-07T04:46:39;17.40;75.70
4578;DHT22;2301;47.354;8.528;2023-08-07T04:49:06;17.50;76.10
4578;DHT22;2301;47.354;8.528;2023-08-07T04:51:33;17.40;76.00
4578;DHT22;2301;47.354;8.528;2023-08-07T04:54:00;17.40;75.60
4578;DHT22;2301;47.354;8.528;2023-08-07T04:56:27;17.40;76.30
4578;DHT22;2301;47.354;8.528;2023-08-07T04:58:54;17.40;75.10
4578;DHT22;2301;47.354;8.528;2023-08-07T05:01:21;17.50;76.40
4578;DHT22;2301;47.354;8.528;2023-08-07T05:03:49;17.60;75.60
4578;DHT22;2301;47.354;8.528;2023-08-07T05:06:16;17.60;75.80
4578;DHT22;2301;47.354;8.528;2023-08-07T05:08:44;17.60;75.80
4578;DHT22;2301;47.354;8.528;2023-08-07T05:11:11;17.70;76.00
4578;DHT22;2301;47.354;8.528;2023-08-07T05:13:38;17.70;75.60
4578;DHT22;2301;47.354;8.528;2023-08-07T05:16:05;17.70;75.20
4578;DHT22;2301;47.354;8.528;2023-08-07T05:18:32;17.60;73.90
4578;DHT22;2301;47.354;8.528;2023-08-07T05:21:01;17.50;74.10
4578;DHT22;2301;47.354;8.528;2023-08-07T05:23:27;17.40;71.60
4578;DHT22;2301;47.354;8.528;2023-08-07T05:25:55;17.40;74.50
4578;DHT22;2301;47.354;8.528;2023-08-07T05:28:21;17.40;74.60
4578;DHT22;2301;47.354;8.528;2023-08-07T05:30:48;17.40;73.90
4578;DHT22;2301;47.354;8.528;2023-08-07T05:33:15;17.50;75.40
4578;DHT22;2301;47.354;8.528;2023-08-07T05:35:42;17.60;76.10
4578;DHT22;2301;47.354;8.528;2023-08-07T05:38:10;17.50;74.20
4578;DHT22;2301;47.354;8.528;2023-08-07T05:40:37;17.60;74.90
4578;DHT22;2301;47.354;8.528;2023-08-07T05:43:06;17.60;74.80
4578;DHT22;2301;47.354;8.528;2023-08-07T05:45:34;17.60;72.30
4578;DHT22;2301;47.354;8.528;2023-08-07T05:48:01;17.60;74.10
4578;DHT22;2301;47.354;8.528;2023-08-07T05:50:28;17.60;73.90
4578;DHT22;2301;47.354;8.528;2023-08-07T05:52:55;17.60;73.80
4578;DHT22;2301;47.354;8.528;2023-08-07T05:55:23;17.50;74.30
4578;DHT22;2301;47.354;8.528;2023-08-07T05:57:50;17.60;73.20
4578;DHT22;2301;47.354;8.528;2023-08-07T06:00:17;17.60;74.20
4578;DHT22;2301;47.354;8.528;2023-08-07T06:02:45;17.50;73.80
4578;DHT22;2301;47.354;8.528;2023-08-07T06:05:12;17.60;74.40
4578;DHT22;2301;47.354;8.528;2023-08-07T06:07:41;17.60;74.10
4578;DHT22;2301;47.354;8.528;2023-08-07T06:10:09;17.70;74.30
4578;DHT22;2301;47.354;8.528;2023-08-07T06:12:37;17.70;72.90
4578;DHT22;2301;47.354;8.528;2023-08-07T06:15:05;17.60;71.50
4578;DHT22;2301;47.354;8.528;2023-08-07T06:17:32;17.70;73.60
4578;DHT22;2301;47.354;8.528;2023-08-07T06:19:59;17.60;72.90
4578;DHT22;2301;47.354;8.528;2023-08-07T06:22:26;17.70;72.50
4578;DHT22;2301;47.354;8.528;2023-08-07T06:24:53;17.70;73.00
4578;DHT22;2301;47.354;8.528;2023-08-07T06:27:21;17.70;72.40
4578;DHT22;2301;47.354;8.528;2023-08-07T06:29:50;17.70;71.50
4578;DHT22;2301;47.354;8.528;2023-08-07T06:32:17;17.70;72.00
4578;DHT22;2301;47.354;8.528;2023-08-07T06:34:44;17.60;70.20
4578;DHT22;2301;47.354;8.528;2023-08-07T06:37:12;17.60;71.10
4578;DHT22;2301;47.354;8.528;2023-08-07T06:39:39;17.60;72.30
4578;DHT22;2301;47.354;8.528;2023-08-07T06:42:06;17.70;72.40
4578;DHT22;2301;47.354;8.528;2023-08-07T06:44:33;17.90;72.20
4578;DHT22;2301;47.354;8.528;2023-08-07T06:47:01;18.10;71.60
4578;DHT22;2301;47.354;8.528;2023-08-07T06:49:28;18.30;70.90
4578;DHT22;2301;47.354;8.528;2023-08-07T06:51:57;18.50;70.50
4578;DHT22;2301;47.354;8.528;2023-08-07T06:54:24;18.50;69.40
4578;DHT22;2301;47.354;8.528;2023-08-07T06:56:51;18.60;70.00
4578;DHT22;2301;47.354;8.528;2023-08-07T06:59:17;18.60;68.40
4578;DHT22;2301;47.354;8.528;2023-08-07T07:01:44;18.60;68.90
4578;DHT22;2301;47.354;8.528;2023-08-07T07:04:13;18.60;69.30
4578;DHT22;2301;47.354;8.528;2023-08-07T07:06:39;18.60;69.40
4578;DHT22;2301;47.354;8.528;2023-08-07T07:09:06;18.60;70.90
4578;DHT22;2301;47.354;8.528;2023-08-07T07:11:33;18.80;71.40
4578;DHT22;2301;47.354;8.528;2023-08-07T07:14:01;19.00;72.10
4578;DHT22;2301;47.354;8.528;2023-08-07T07:16:28;19.20;72.00
4578;DHT22;2301;47.354;8.528;2023-08-07T07:18:55;19.30;69.30
4578;DHT22;2301;47.354;8.528;2023-08-07T07:21:25;19.30;65.70
4578;DHT22;2301;47.354;8.528;2023-08-07T07:23:52;19.30;64.70
4578;DHT22;2301;47.354;8.528;2023-08-07T07:26:19;19.20;63.90
4578;DHT22;2301;47.354;8.528;2023-08-07T07:28:46;19.10;64.10
4578;DHT22;2301;47.354;8.528;2023-08-07T07:31:13;19.00;64.00
4578;DHT22;2301;47.354;8.528;2023-08-07T07:33:43;19.00;63.80
4578;DHT22;2301;47.354;8.528;2023-08-07T07:36:14;18.90;63.70
4578;DHT22;2301;47.354;8.528;2023-08-07T07:38:45;18.80;63.70
4578;DHT22;2301;47.354;8.528;2023-08-07T07:41:13;18.70;64.10
4578;DHT22;2301;47.354;8.528;2023-08-07T07:43:40;18.50;64.20
4578;DHT22;2301;47.354;8.528;2023-08-07T07:46:07;18.40;64.20
4578;DHT22;2301;47.354;8.528;2023-08-07T07:48:34;18.20;64.20
4578;DHT22;2301;47.354;8.528;2023-08-07T07:51:01;18.40;70.80
4578;DHT22;2301;47.354;8.528;2023-08-07T07:53:28;18.40;67.70
4578;DHT22;2301;47.354;8.528;2023-08-07T07:55:57;18.30;66.40
4578;DHT22;2301;47.354;8.528;2023-08-07T07:58:24;18.20;66.30
4578;DHT22;2301;47.354;8.528;2023-08-07T08:00:51;18.10;66.70
4578;DHT22;2301;47.354;8.528;2023-08-07T08:03:20;18.00;67.10
4578;DHT22;2301;47.354;8.528;2023-08-07T08:05:49;18.00;68.40
4578;DHT22;2301;47.354;8.528;2023-08-07T08:08:16;18.30;72.40
4578;DHT22;2301;47.354;8.528;2023-08-07T08:10:43;18.70;71.20
4578;DHT22;2301;47.354;8.528;2023-08-07T08:13:13;19.00;70.00
4578;DHT22;2301;47.354;8.528;2023-08-07T08:15:40;19.20;70.20
4578;DHT22;2301;47.354;8.528;2023-08-07T08:18:07;19.40;69.20
4578;DHT22;2301;47.354;8.528;2023-08-07T08:20:36;19.50;69.00
4578;DHT22;2301;47.354;8.528;2023-08-07T08:23:05;19.70;68.90
4578;DHT22;2301;47.354;8.528;2023-08-07T08:25:35;19.80;69.00
4578;DHT22;2301;47.354;8.528;2023-08-07T08:28:01;19.90;70.00
4578;DHT22;2301;47.354;8.528;2023-08-07T08:30:30;19.90;70.30
4578;DHT22;2301;47.354;8.528;2023-08-07T08:32:56;20.00;70.50
4578;DHT22;2301;47.354;8.528;2023-08-07T08:35:23;20.00;69.90
4578;DHT22;2301;47.354;8.528;2023-08-07T08:37:51;20.10;70.20
4578;DHT22;2301;47.354;8.528;2023-08-07T08:40:18;20.20;69.40
4578;DHT22;2301;47.354;8.528;2023-08-07T08:42:48;20.20;67.00
4578;DHT22;2301;47.354;8.528;2023-08-07T08:45:15;19.80;62.30
4578;DHT22;2301;47.354;8.528;2023-08-07T08:47:51;19.70;63.50
4578;DHT22;2301;47.354;8.528;2023-08-07T08:50:21;19.50;63.60
4578;DHT22;2301;47.354;8.528;2023-08-07T08:53:25;19.30;63.70
4578;DHT22;2301;47.354;8.528;2023-08-07T08:55:54;19.10;63.30
4578;DHT22;2301;47.354;8.528;2023-08-07T08:58:23;18.90;64.60
4578;DHT22;2301;47.354;8.528;2023-08-07T09:00:50;18.80;65.60
4578;DHT22;2301;47.354;8.528;2023-08-07T09:03:24;18.80;66.50
4578;DHT22;2301;47.354;8.528;2023-08-07T09:05:53;18.70;67.70
4578;DHT22;2301;47.354;8.528;2023-08-07T09:08:21;18.70;66.40
4578;DHT22;2301;47.354;8.528;2023-08-07T09:10:58;18.60;66.80
4578;DHT22;2301;47.354;8.528;2023-08-07T09:13:28;18.50;66.20
4578;DHT22;2301;47.354;8.528;2023-08-07T09:15:56;18.50;66.20
4578;DHT22;2301;47.354;8.528;2023-08-07T09:18:26;18.80;66.80
4578;DHT22;2301;47.354;8.528;2023-08-07T09:20:54;19.00;66.20
4578;DHT22;2301;47.354;8.528;2023-08-07T09:23:24;19.30;65.60
4578;DHT22;2301;47.354;8.528;2023-08-07T09:26:00;19.80;65.10
4578;DHT22;2301;47.354;8.528;2023-08-07T09:28:35;20.40;64.20
4578;DHT22;2301;47.354;8.528;2023-08-07T09:31:06;20.40;61.00
4578;DHT22;2301;47.354;8.528;2023-08-07T09:33:35;20.20;60.60
4578;DHT22;2301;47.354;8.528;2023-08-07T09:36:03;19.90;60.20
4578;DHT22;2301;47.354;8.528;2023-08-07T09:38:31;19.60;60.50
4578;DHT22;2301;47.354;8.528;2023-08-07T09:40:58;19.80;61.40
4578;DHT22;2301;47.354;8.528;2023-08-07T09:43:26;20.40;62.00
4578;DHT22;2301;47.354;8.528;2023-08-07T09:48:45;22.20;60.20
4578;DHT22;2301;47.354;8.528;2023-08-07T09:51:12;22.90;58.70
4578;DHT22;2301;47.354;8.528;2023-08-07T09:53:39;23.20;56.40
4578;DHT22;2301;47.354;8.528;2023-08-07T09:56:07;23.30;55.40
4578;DHT22;2301;47.354;8.528;2023-08-07T09:58:35;22.90;55.80
4578;DHT22;2301;47.354;8.528;2023-08-07T10:01:05;22.50;55.40
4578;DHT22;2301;47.354;8.528;2023-08-07T10:03:35;22.20;56.00
4578;DHT22;2301;47.354;8.528;2023-08-07T10:06:04;21.80;56.10
4578;DHT22;2301;47.354;8.528;2023-08-07T10:08:32;21.40;56.10
4578;DHT22;2301;47.354;8.528;2023-08-07T10:11:01;21.40;57.40
4578;DHT22;2301;47.354;8.528;2023-08-07T10:13:29;21.30;58.10
4578;DHT22;2301;47.354;8.528;2023-08-07T10:15:56;21.10;58.50
4578;DHT22;2301;47.354;8.528;2023-08-07T10:18:24;20.90;57.90
4578;DHT22;2301;47.354;8.528;2023-08-07T10:20:51;20.80;58.40
4578;DHT22;2301;47.354;8.528;2023-08-07T10:23:21;20.70;59.30
4578;DHT22;2301;47.354;8.528;2023-08-07T10:25:48;20.70;60.30
4578;DHT22;2301;47.354;8.528;2023-08-07T10:28:18;21.20;61.00
4578;DHT22;2301;47.354;8.528;2023-08-07T10:30:51;21.50;59.70
4578;DHT22;2301;47.354;8.528;2023-08-07T10:33:20;21.50;58.80
4578;DHT22;2301;47.354;8.528;2023-08-07T10:35:54;21.40;58.10
4578;DHT22;2301;47.354;8.528;2023-08-07T10:38:27;21.20;57.70
4578;DHT22;2301;47.354;8.528;2023-08-07T10:41:01;21.10;57.50
4578;DHT22;2301;47.354;8.528;2023-08-07T10:43:29;21.10;57.70
4578;DHT22;2301;47.354;8.528;2023-08-07T10:46:06;21.40;57.50
4578;DHT22;2301;47.354;8.528;2023-08-07T10:48:54;21.20;55.90
4578;DHT22;2301;47.354;8.528;2023-08-07T10:51:29;21.20;56.60
4578;DHT22;2301;47.354;8.528;2023-08-07T10:53:59;20.90;56.50
4578;DHT22;2301;47.354;8.528;2023-08-07T10:56:30;20.70;56.70
4578;DHT22;2301;47.354;8.528;2023-08-07T10:58:58;20.50;57.20
4578;DHT22;2301;47.354;8.528;2023-08-07T11:01:39;20.30;57.10
4578;DHT22;2301;47.354;8.528;2023-08-07T11:04:08;20.20;57.30
4578;DHT22;2301;47.354;8.528;2023-08-07T11:06:38;20.00;56.90
4578;DHT22;2301;47.354;8.528;2023-08-07T11:09:08;19.90;57.30
4578;DHT22;2301;47.354;8.528;2023-08-07T11:11:36;19.80;57.80
4578;DHT22;2301;47.354;8.528;2023-08-07T11:14:05;19.60;57.80
4578;DHT22;2301;47.354;8.528;2023-08-07T11:16:33;19.50;58.10
4578;DHT22;2301;47.354;8.528;2023-08-07T11:19:03;19.40;58.30
4578;DHT22;2301;47.354;8.528;2023-08-07T11:21:33;19.30;58.70
4578;DHT22;2301;47.354;8.528;2023-08-07T11:24:01;19.30;58.50
4578;DHT22;2301;47.354;8.528;2023-08-07T11:26:32;19.60;58.90
4578;DHT22;2301;47.354;8.528;2023-08-07T11:28:59;20.10;58.90
4578;DHT22;2301;47.354;8.528;2023-08-07T11:31:27;20.50;58.70
4578;DHT22;2301;47.354;8.528;2023-08-07T11:33:56;20.80;58.30
4578;DHT22;2301;47.354;8.528;2023-08-07T11:36:25;20.70;56.80
4578;DHT22;2301;47.354;8.528;2023-08-07T11:38:52;20.60;57.10
4578;DHT22;2301;47.354;8.528;2023-08-07T11:41:19;20.60;56.20
4578;DHT22;2301;47.354;8.528;2023-08-07T11:43:47;20.60;54.80
4578;DHT22;2301;47.354;8.528;2023-08-07T11:46:15;20.70;54.00
4578;DHT22;2301;47.354;8.528;2023-08-07T11:48:43;20.90;53.10
4578;DHT22;2301;47.354;8.528;2023-08-07T11:51:12;21.00;52.70
4578;DHT22;2301;47.354;8.528;2023-08-07T11:53:40;21.10;52.60
4578;DHT22;2301;47.354;8.528;2023-08-07T11:56:09;21.10;52.30
4578;DHT22;2301;47.354;8.528;2023-08-07T11:58:42;21.10;52.40
4578;DHT22;2301;47.354;8.528;2023-08-07T12:01:14;21.00;51.30
4578;DHT22;2301;47.354;8.528;2023-08-07T12:03:49;20.90;50.80
4578;DHT22;2301;47.354;8.528;2023-08-07T12:06:20;21.00;51.70
4578;DHT22;2301;47.354;8.528;2023-08-07T12:08:49;21.10;52.10
4578;DHT22;2301;47.354;8.528;2023-08-07T12:11:17;21.30;51.80
4578;DHT22;2301;47.354;8.528;2023-08-07T12:13:46;21.40;51.60
4578;DHT22;2301;47.354;8.528;2023-08-07T12:16:16;21.60;51.50
4578;DHT22;2301;47.354;8.528;2023-08-07T12:18:44;21.60;49.90
4578;DHT22;2301;47.354;8.528;2023-08-07T12:21:14;21.70;50.60
4578;DHT22;2301;47.354;8.528;2023-08-07T12:23:44;21.80;49.40
4578;DHT22;2301;47.354;8.528;2023-08-07T12:26:15;21.80;49.30
4578;DHT22;2301;47.354;8.528;2023-08-07T12:28:45;21.80;49.80
4578;DHT22;2301;47.354;8.528;2023-08-07T12:31:15;21.70;49.60
4578;DHT22;2301;47.354;8.528;2023-08-07T12:33:43;21.70;50.50
4578;DHT22;2301;47.354;8.528;2023-08-07T12:36:09;21.60;50.70
4578;DHT22;2301;47.354;8.528;2023-08-07T12:38:39;21.60;50.80
4578;DHT22;2301;47.354;8.528;2023-08-07T12:41:05;21.50;51.00
4578;DHT22;2301;47.354;8.528;2023-08-07T12:43:32;21.50;51.50
4578;DHT22;2301;47.354;8.528;2023-08-07T12:46:00;21.40;51.90
4578;DHT22;2301;47.354;8.528;2023-08-07T12:48:30;21.20;52.80
4578;DHT22;2301;47.354;8.528;2023-08-07T12:51:00;21.10;54.40
4578;DHT22;2301;47.354;8.528;2023-08-07T12:53:28;20.90;55.70
4578;DHT22;2301;47.354;8.528;2023-08-07T12:55:57;20.80;55.60
4578;DHT22;2301;47.354;8.528;2023-08-07T12:58:24;20.80;56.80
4578;DHT22;2301;47.354;8.528;2023-08-07T13:00:53;20.90;56.90
4578;DHT22;2301;47.354;8.528;2023-08-07T13:03:20;21.00;57.20
4578;DHT22;2301;47.354;8.528;2023-08-07T13:05:54;21.20;57.40
4578;DHT22;2301;47.354;8.528;2023-08-07T13:08:26;21.30;56.20
4578;DHT22;2301;47.354;8.528;2023-08-07T13:10:56;21.40;55.00
4578;DHT22;2301;47.354;8.528;2023-08-07T13:13:23;21.60;54.00
4578;DHT22;2301;47.354;8.528;2023-08-07T13:15:50;21.60;53.10
4578;DHT22;2301;47.354;8.528;2023-08-07T13:18:17;21.70;53.10
4578;DHT22;2301;47.354;8.528;2023-08-07T13:20:44;21.80;53.40
4578;DHT22;2301;47.354;8.528;2023-08-07T13:23:14;21.90;53.30
4578;DHT22;2301;47.354;8.528;2023-08-07T13:25:41;21.90;52.60
4578;DHT22;2301;47.354;8.528;2023-08-07T13:28:08;22.00;52.70
4578;DHT22;2301;47.354;8.528;2023-08-07T13:30:36;21.90;51.30
4578;DHT22;2301;47.354;8.528;2023-08-07T13:33:03;21.90;51.10
4578;DHT22;2301;47.354;8.528;2023-08-07T13:35:30;21.90;51.20
4578;DHT22;2301;47.354;8.528;2023-08-07T13:37:58;21.90;51.40
4578;DHT22;2301;47.354;8.528;2023-08-07T13:40:26;22.00;51.30
4578;DHT22;2301;47.354;8.528;2023-08-07T13:42:53;21.90;51.10
4578;DHT22;2301;47.354;8.528;2023-08-07T13:45:19;22.00;51.20
4578;DHT22;2301;47.354;8.528;2023-08-07T13:47:46;22.00;51.00
4578;DHT22;2301;47.354;8.528;2023-08-07T13:50:13;22.00;50.70
4578;DHT22;2301;47.354;8.528;2023-08-07T13:52:40;21.90;50.50
4578;DHT22;2301;47.354;8.528;2023-08-07T13:55:07;21.70;50.60
4578;DHT22;2301;47.354;8.528;2023-08-07T13:57:37;21.60;51.40
4578;DHT22;2301;47.354;8.528;2023-08-07T14:00:05;21.50;52.70
4578;DHT22;2301;47.354;8.528;2023-08-07T14:02:33;21.20;56.20
4578;DHT22;2301;47.354;8.528;2023-08-07T14:05:00;20.90;60.50
4578;DHT22;2301;47.354;8.528;2023-08-07T14:07:27;20.80;62.60
4578;DHT22;2301;47.354;8.528;2023-08-07T14:09:54;20.70;64.40
4578;DHT22;2301;47.354;8.528;2023-08-07T14:12:22;20.80;66.80
4578;DHT22;2301;47.354;8.528;2023-08-07T14:14:50;20.80;65.90
4578;DHT22;2301;47.354;8.528;2023-08-07T14:17:17;20.90;63.10
4578;DHT22;2301;47.354;8.528;2023-08-07T14:19:44;21.00;61.90
4578;DHT22;2301;47.354;8.528;2023-08-07T14:22:11;21.00;64.10
4578;DHT22;2301;47.354;8.528;2023-08-07T14:24:38;21.00;63.00
4578;DHT22;2301;47.354;8.528;2023-08-07T14:27:05;21.10;62.90
4578;DHT22;2301;47.354;8.528;2023-08-07T14:29:34;21.20;61.40
4578;DHT22;2301;47.354;8.528;2023-08-07T14:32:08;21.20;60.00
4578;DHT22;2301;47.354;8.528;2023-08-07T14:34:36;21.20;58.90
4578;DHT22;2301;47.354;8.528;2023-08-07T14:37:03;21.10;58.20
4578;DHT22;2301;47.354;8.528;2023-08-07T14:39:31;21.20;58.90
4578;DHT22;2301;47.354;8.528;2023-08-07T14:41:58;21.20;59.00
4578;DHT22;2301;47.354;8.528;2023-08-07T14:44:24;21.30;58.30
4578;DHT22;2301;47.354;8.528;2023-08-07T14:46:53;21.30;58.50
4578;DHT22;2301;47.354;8.528;2023-08-07T14:49:24;21.20;58.80
4578;DHT22;2301;47.354;8.528;2023-08-07T14:51:51;21.30;57.90
4578;DHT22;2301;47.354;8.528;2023-08-07T14:54:18;21.30;56.80
4578;DHT22;2301;47.354;8.528;2023-08-07T14:56:46;21.30;57.30
4578;DHT22;2301;47.354;8.528;2023-08-07T14:59:13;21.40;57.70
4578;DHT22;2301;47.354;8.528;2023-08-07T15:01:39;21.30;55.70
4578;DHT22;2301;47.354;8.528;2023-08-07T15:04:07;21.30;55.60
4578;DHT22;2301;47.354;8.528;2023-08-07T15:06:46;21.20;55.90
4578;DHT22;2301;47.354;8.528;2023-08-07T15:09:13;21.10;55.40
4578;DHT22;2301;47.354;8.528;2023-08-07T15:11:45;21.10;56.00
4578;DHT22;2301;47.354;8.528;2023-08-07T15:14:13;21.10;55.10
4578;DHT22;2301;47.354;8.528;2023-08-07T15:16:40;21.00;55.20
4578;DHT22;2301;47.354;8.528;2023-08-07T15:19:07;21.00;54.40
4578;DHT22;2301;47.354;8.528;2023-08-07T15:21:34;21.00;55.00
4578;DHT22;2301;47.354;8.528;2023-08-07T15:24:02;21.00;55.20
4578;DHT22;2301;47.354;8.528;2023-08-07T15:26:29;21.00;54.50
4578;DHT22;2301;47.354;8.528;2023-08-07T15:28:56;21.00;54.20
4578;DHT22;2301;47.354;8.528;2023-08-07T15:31:23;20.90;54.60
4578;DHT22;2301;47.354;8.528;2023-08-07T15:33:50;20.90;54.80
4578;DHT22;2301;47.354;8.528;2023-08-07T15:36:18;20.90;54.70
4578;DHT22;2301;47.354;8.528;2023-08-07T15:38:45;20.90;54.90
4578;DHT22;2301;47.354;8.528;2023-08-07T15:41:13;20.80;54.30
4578;DHT22;2301;47.354;8.528;2023-08-07T15:43:40;20.90;54.60
4578;DHT22;2301;47.354;8.528;2023-08-07T15:46:07;20.70;53.90
4578;DHT22;2301;47.354;8.528;2023-08-07T15:48:34;20.70;55.00
4578;DHT22;2301;47.354;8.528;2023-08-07T15:51:01;20.60;55.10
4578;DHT22;2301;47.354;8.528;2023-08-07T15:53:28;20.60;54.80
4578;DHT22;2301;47.354;8.528;2023-08-07T15:55:55;20.60;54.80
4578;DHT22;2301;47.354;8.528;2023-08-07T15:58:23;20.60;54.20
4578;DHT22;2301;47.354;8.528;2023-08-07T16:00:50;20.60;54.20
4578;DHT22;2301;47.354;8.528;2023-08-07T16:03:17;20.60;54.00
4578;DHT22;2301;47.354;8.528;2023-08-07T16:05:44;20.50;53.70
4578;DHT22;2301;47.354;8.528;2023-08-07T16:08:11;20.40;54.10
4578;DHT22;2301;47.354;8.528;2023-08-07T16:10:38;20.40;54.30